Terminal Aerodrome Forecast
Issued by NWS Cleveland, OH

Home | Current Version | Previous Version | Text Only | Print | Product List | Glossary On
Versions: 1 2 3 4 5 6 7 8 9 10 11 12 13 14 15 16 17
302
FTUS41 KCLE 221621 AAB
TAFCAK
TAF AMD
KCAK 221621Z 2216/2312 24010KT P6SM OVC012
     FM221800 26010KT P6SM VCTS SCT012CB OVC025
      TEMPO 2220/2223 VRB20G30KT 1 1/2SM -TSRA OVC012CB
     FM230000 32007KT 5SM BR OVC012=

USA.gov is the U.S. government's official web portal to all federal, state and local government web resources and services.